Roscoe, Texas
Current Conditions -  °F | °C
As of 2:55 AM on Sunday 26 Oct 2014 (Local Time) from KSWW Reporting Station
Clear Clear  
Wind Chill: 67°   Ceiling: Unl
Heat Index: 67°   Visibility: 10mi
Dew Point: 54°   Wind: 14mph
Humidity: 61%   Direction: 190°S
Pressure: 30.08"   Gusts: 18mph
Location:  32.45°N, 100.54°W
Report Text: KSWW 260755Z AUTO 19012G16KT 10SM CLR 20/12 A3008 RMK AO2 T01970120
Loading
Personal Weather Stations






























Interactive Weather Map
Tropical Storm Tracking
New forecast layout! Learn more

10-Day Weather Forecast

Advertisements
Track Severe Weather on mobile